createdAt,value
2019-05-19T00:00:14.425Z,95.45
2019-05-19T00:01:15.030Z,95.21
2019-05-19T00:02:15.602Z,95.12
2019-05-19T00:03:16.225Z,96.13
2019-05-19T00:04:16.772Z,96.66
2019-05-19T00:05:17.365Z,95.60
2019-05-19T00:06:17.978Z,96.51
2019-05-19T00:07:18.548Z,95.21
2019-05-19T00:08:19.126Z,96.32
2019-05-19T00:09:19.692Z,96.17
2019-05-19T00:10:20.263Z,95.89
2019-05-19T00:11:20.834Z,95.79
2019-05-19T00:12:21.406Z,95.21
2019-05-19T00:13:22.019Z,94.45
2019-05-19T00:14:22.592Z,94.73
2019-05-19T00:15:23.184Z,95.31
2019-05-19T00:16:23.777Z,95.12
2019-05-19T00:17:24.391Z,94.93
2019-05-19T00:18:24.963Z,95.03
2019-05-19T00:19:27.030Z,94.83
2019-05-19T00:20:26.140Z,94.35
2019-05-19T00:21:26.719Z,94.73
2019-05-19T00:22:27.324Z,95.17
2019-05-19T00:23:27.895Z,94.73
2019-05-19T00:24:28.466Z,95.12
2019-05-19T00:25:29.057Z,95.12
2019-05-19T00:26:29.653Z,94.93
2019-05-19T00:27:30.227Z,94.83
2019-05-19T00:28:30.842Z,95.03
2019-05-19T00:29:31.426Z,94.64
2019-05-19T00:30:31.983Z,94.64
2019-05-19T00:31:32.555Z,94.45
2019-05-19T00:32:33.124Z,95.03
2019-05-19T00:33:33.695Z,95.21
2019-05-19T00:34:34.307Z,94.83
2019-05-19T00:35:34.895Z,95.40
2019-05-19T00:36:35.496Z,94.83
2019-05-19T00:37:36.069Z,94.64
2019-05-19T00:38:36.683Z,94.73
2019-05-19T00:39:37.275Z,95.03
2019-05-19T00:40:37.869Z,94.83
2019-05-19T00:41:38.440Z,94.73
2019-05-19T00:42:39.015Z,94.26
2019-05-19T00:43:39.582Z,94.73
2019-05-19T00:44:40.153Z,94.73
2019-05-19T00:45:40.723Z,94.83
2019-05-19T00:46:41.304Z,95.40
2019-05-19T00:47:41.912Z,95.21
2019-05-19T00:48:42.479Z,95.21
2019-05-19T00:49:43.058Z,94.73
2019-05-19T00:50:43.622Z,95.40
2019-05-19T00:51:44.190Z,95.98
2019-05-19T00:52:44.763Z,95.03
2019-05-19T00:53:45.334Z,94.93
2019-05-19T00:54:45.916Z,94.83
2019-05-19T00:55:46.476Z,95.89
2019-05-19T00:56:47.048Z,95.12
2019-05-19T00:57:47.618Z,95.21
2019-05-19T00:58:48.188Z,94.93
2019-05-19T00:59:48.759Z,95.31
2019-05-19T01:00:49.331Z,95.98
2019-05-19T01:01:49.906Z,95.60
2019-05-19T01:02:50.515Z,95.79
2019-05-19T01:03:51.090Z,95.03
2019-05-19T01:04:51.659Z,94.93
2019-05-19T01:05:52.227Z,95.03
2019-05-19T01:06:52.804Z,95.31
2019-05-19T01:07:53.415Z,95.98
2019-05-19T01:08:53.986Z,95.03
2019-05-19T01:09:54.557Z,95.60
2019-05-19T01:10:55.127Z,96.17
2019-05-19T01:11:55.697Z,95.98
2019-05-19T01:12:56.269Z,96.17
2019-05-19T01:13:56.838Z,96.37
2019-05-19T01:14:57.409Z,96.17
2019-05-19T01:15:57.978Z,95.89
2019-05-19T01:16:58.548Z,95.89
2019-05-19T01:17:59.119Z,95.98
2019-05-19T01:18:59.689Z,96.27
2019-05-19T01:20:00.257Z,95.98
2019-05-19T01:21:00.829Z,96.08
2019-05-19T01:22:01.405Z,96.27
2019-05-19T01:23:01.969Z,95.79
2019-05-19T01:24:02.541Z,95.79
2019-05-19T01:25:03.111Z,95.98
2019-05-19T01:26:03.682Z,95.98
2019-05-19T01:27:04.254Z,96.08
2019-05-19T01:28:04.827Z,96.37
2019-05-19T01:29:05.401Z,96.27
2019-05-19T01:30:05.965Z,96.08
2019-05-19T01:31:06.540Z,95.79
2019-05-19T01:32:07.108Z,95.60
2019-05-19T01:33:07.722Z,95.98
2019-05-19T01:34:08.292Z,95.89
2019-05-19T01:35:08.867Z,95.79
2019-05-19T01:36:09.434Z,95.98
2019-05-19T01:37:10.008Z,95.40
2019-05-19T01:38:10.578Z,95.89
2019-05-19T01:39:11.145Z,95.98
2019-05-19T01:40:11.723Z,96.75
2019-05-19T01:41:12.291Z,96.08
2019-05-19T01:42:12.856Z,96.27
2019-05-19T01:43:13.431Z,96.27
2019-05-19T01:44:13.998Z,95.79
2019-05-19T01:45:14.618Z,96.56
2019-05-19T01:46:15.145Z,95.89
2019-05-19T01:47:15.715Z,95.89
2019-05-19T01:48:16.286Z,96.85
2019-05-19T01:49:16.857Z,95.98
2019-05-19T01:50:18.582Z,95.89
2019-05-19T01:51:18.992Z,95.98
2019-05-19T01:52:19.563Z,96.66
2019-05-19T01:53:20.131Z,96.85
2019-05-19T01:54:20.703Z,96.37
2019-05-19T01:55:21.274Z,96.56
2019-05-19T01:56:21.842Z,96.85
2019-05-19T01:57:22.416Z,96.75
2019-05-19T01:58:23.030Z,96.75
2019-05-19T01:59:23.599Z,96.17
2019-05-19T02:00:24.172Z,95.84
2019-05-19T02:01:24.743Z,97.09
2019-05-19T02:02:25.313Z,96.94
2019-05-19T02:03:25.884Z,96.75
2019-05-19T02:04:26.456Z,96.08
2019-05-19T02:05:27.028Z,96.70
2019-05-19T02:06:27.598Z,96.94
2019-05-19T02:07:28.183Z,96.61
2019-05-19T02:08:28.782Z,96.99
2019-05-19T02:09:29.362Z,96.66
2019-05-19T02:10:29.978Z,97.24
2019-05-19T02:11:30.547Z,96.61
2019-05-19T02:12:31.168Z,97.66
2019-05-19T02:13:31.733Z,97.66
2019-05-19T02:14:32.304Z,97.62
2019-05-19T02:15:32.877Z,96.94
2019-05-19T02:16:33.448Z,96.70
2019-05-19T02:17:34.018Z,96.85
2019-05-19T02:18:34.591Z,97.04
2019-05-19T02:19:35.161Z,97.09
2019-05-19T02:20:35.731Z,97.04
2019-05-19T02:21:36.301Z,96.70
2019-05-19T02:22:36.870Z,96.80
2019-05-19T02:23:37.440Z,96.75
2019-05-19T02:24:38.034Z,96.80
2019-05-19T02:25:38.579Z,98.10
2019-05-19T02:26:39.354Z,96.99
2019-05-19T02:27:39.970Z,96.70
2019-05-19T02:28:40.535Z,97.76
2019-05-19T02:29:41.105Z,96.70
2019-05-19T02:30:41.682Z,98.34
2019-05-19T02:31:42.291Z,97.86
2019-05-19T02:32:42.902Z,97.91
2019-05-19T02:33:43.471Z,97.57
2019-05-19T02:34:44.045Z,97.24
2019-05-19T02:35:44.657Z,97.81
2019-05-19T02:36:45.247Z,97.66
2019-05-19T02:37:45.821Z,96.75
2019-05-19T02:38:46.395Z,96.75
2019-05-19T02:39:46.962Z,97.42
2019-05-19T02:40:47.574Z,96.99
2019-05-19T02:41:48.145Z,96.80
2019-05-19T02:42:48.719Z,96.99
2019-05-19T02:43:49.328Z,97.86
2019-05-19T02:44:49.900Z,98.10
2019-05-19T02:45:50.512Z,97.09
2019-05-19T02:46:51.082Z,96.99
2019-05-19T02:47:51.662Z,97.57
2019-05-19T02:48:52.265Z,97.33
2019-05-19T02:49:52.844Z,97.57
2019-05-19T02:50:53.471Z,97.76
2019-05-19T02:51:54.011Z,98.14
2019-05-19T02:52:54.579Z,96.99
2019-05-19T02:53:55.151Z,97.09
2019-05-19T02:54:55.765Z,97.76
2019-05-19T02:55:56.336Z,97.19
2019-05-19T02:56:56.906Z,98.24
2019-05-19T02:57:57.476Z,98.14
2019-05-19T02:58:58.047Z,97.66
2019-05-19T02:59:58.620Z,97.76
2019-05-19T03:00:59.192Z,98.14
2019-05-19T03:01:59.759Z,97.86
2019-05-19T03:03:00.330Z,97.96
2019-05-19T03:04:00.898Z,97.76
2019-05-19T03:05:01.476Z,97.66
2019-05-19T03:06:02.050Z,97.86
2019-05-19T03:07:02.676Z,98.72
2019-05-19T03:08:03.276Z,98.14
2019-05-19T03:09:03.846Z,97.57
2019-05-19T03:10:04.420Z,98.91
2019-05-19T03:11:05.025Z,98.34
2019-05-19T03:12:05.596Z,98.34
2019-05-19T03:13:06.172Z,98.53
2019-05-19T03:14:06.779Z,98.72
2019-05-19T03:15:07.349Z,98.63
2019-05-19T03:16:07.949Z,98.43
2019-05-19T03:17:08.530Z,98.53
2019-05-19T03:18:09.135Z,97.96
2019-05-19T03:19:09.756Z,98.63
2019-05-19T03:20:10.341Z,98.34
2019-05-19T03:21:12.084Z,98.43
2019-05-19T03:22:11.560Z,98.14
2019-05-19T03:23:12.164Z,98.53
2019-05-19T03:24:12.776Z,98.24
2019-05-19T03:25:13.379Z,98.14
2019-05-19T03:26:13.963Z,98.14
2019-05-19T03:27:14.743Z,97.76
2019-05-19T03:28:15.351Z,97.76
2019-05-19T03:29:15.963Z,97.86
2019-05-19T03:30:16.537Z,98.14
2019-05-19T03:31:17.108Z,98.24
2019-05-19T03:32:17.722Z,98.72
2019-05-19T03:33:18.346Z,98.72
2019-05-19T03:34:18.947Z,97.76
2019-05-19T03:35:19.549Z,98.05
2019-05-19T03:36:20.162Z,98.53
2019-05-19T03:37:20.749Z,98.72
2019-05-19T03:38:21.369Z,98.91
2019-05-19T03:39:22.166Z,97.96
2019-05-19T03:40:22.777Z,98.14
2019-05-19T03:41:23.393Z,98.63
2019-05-19T03:42:23.963Z,98.14
2019-05-19T03:43:24.568Z,98.72
2019-05-19T03:44:25.146Z,98.43
2019-05-19T03:45:25.780Z,97.76
2019-05-19T03:46:26.330Z,97.96
2019-05-19T03:47:26.938Z,99.10
2019-05-19T03:48:27.541Z,97.86
2019-05-19T03:49:28.112Z,98.05
2019-05-19T03:50:28.762Z,98.14
2019-05-19T03:51:31.683Z,97.57
2019-05-19T03:52:29.948Z,97.66
2019-05-19T03:53:30.527Z,97.76
2019-05-19T03:54:31.086Z,97.38
2019-05-19T03:55:31.699Z,97.86
2019-05-19T03:56:47.080Z,98.24
2019-05-19T03:57:47.695Z,97.76
2019-05-19T03:58:48.262Z,97.76
2019-05-19T04:01:04.251Z,97.86
2019-05-19T04:02:04.823Z,97.66
2019-05-19T04:03:05.409Z,97.76
2019-05-19T04:04:05.960Z,97.19
2019-05-19T04:05:06.532Z,97.76
2019-05-19T04:06:07.103Z,97.66
2019-05-19T04:07:07.674Z,98.14
2019-05-19T04:08:08.288Z,96.99
2019-05-19T04:09:08.906Z,96.80
2019-05-19T04:10:09.515Z,97.66
2019-05-19T04:11:10.083Z,97.09
2019-05-19T04:12:10.656Z,97.76
2019-05-19T05:25:22.412Z,97.71
2019-05-19T05:26:23.030Z,97.61
2019-05-19T05:27:23.565Z,97.81
2019-05-19T10:30:41.842Z,92.28
2019-05-19T10:31:42.432Z,92.76
2019-05-19T10:32:43.075Z,93.53
2019-05-19T10:33:43.663Z,93.53
2019-05-19T10:34:44.237Z,93.15
2019-05-19T10:35:44.819Z,92.85
2019-05-19T10:36:45.399Z,92.95
2019-05-19T10:37:45.975Z,92.85
2019-05-19T10:38:46.551Z,93.05
2019-05-19T10:39:47.129Z,92.76
2019-05-19T10:40:47.741Z,92.76
2019-05-19T10:41:48.328Z,92.57
2019-05-19T10:42:48.905Z,92.38
2019-05-19T10:43:49.484Z,91.41
2019-05-19T10:44:50.103Z,91.70
2019-05-19T10:45:50.685Z,91.70
2019-05-19T10:46:51.259Z,91.80
2019-05-19T10:47:51.840Z,91.22
2019-05-19T10:48:52.416Z,91.03
2019-05-19T10:49:52.993Z,91.13
2019-05-19T10:50:53.571Z,90.88
2019-05-19T10:51:54.150Z,90.73
2019-05-19T10:52:54.728Z,90.30
2019-05-19T10:53:55.306Z,90.30
2019-05-19T10:54:55.884Z,90.11
2019-05-19T10:55:56.464Z,89.82
2019-05-19T10:56:57.042Z,89.92
2019-05-19T10:57:57.621Z,89.43
2019-05-19T10:58:58.245Z,89.63
2019-05-19T10:59:58.823Z,89.43
2019-05-19T11:00:59.401Z,89.34
2019-05-19T11:01:59.982Z,88.67
2019-05-19T11:03:00.562Z,88.85
2019-05-19T11:04:01.141Z,88.67
2019-05-19T11:05:01.725Z,87.70
2019-05-19T11:06:02.421Z,86.35
2019-05-19T11:07:02.984Z,86.26
2019-05-19T11:08:03.560Z,85.78
2019-05-19T11:09:04.141Z,85.20
2019-05-19T11:10:04.727Z,85.00
2019-05-19T11:11:05.301Z,85.39
2019-05-19T11:12:05.927Z,85.30
2019-05-19T11:13:06.479Z,85.00
2019-05-19T11:14:07.060Z,85.00
2019-05-19T11:15:07.645Z,85.00
2019-05-19T11:26:54.537Z,83.99
2019-05-19T11:27:55.131Z,84.09
2019-05-19T11:28:55.737Z,83.99
2019-05-19T11:29:56.330Z,84.09
2019-05-19T11:30:56.914Z,84.18
2019-05-19T11:31:57.543Z,83.99
2019-05-19T11:32:58.131Z,83.99
2019-05-19T11:33:58.713Z,83.80
2019-05-19T11:34:59.299Z,83.51
2019-05-19T11:35:59.878Z,83.12
2019-05-19T11:37:00.463Z,83.31
2019-05-19T11:38:01.048Z,83.41
2019-05-19T11:39:01.634Z,83.12
2019-05-19T11:41:17.900Z,82.20
2019-05-19T11:42:18.488Z,81.91
2019-05-19T11:43:19.073Z,81.72
2019-05-19T11:44:19.864Z,81.72
2019-05-19T11:45:20.447Z,81.43
2019-05-19T11:46:21.035Z,81.43
2019-05-19T11:47:21.618Z,80.76
2019-05-19T11:48:22.205Z,80.76
2019-05-19T11:49:22.788Z,80.56
2019-05-19T11:50:23.378Z,79.89
2019-05-19T11:51:23.958Z,79.83
2019-05-19T11:52:24.544Z,79.83
2019-05-19T11:53:25.130Z,79.93
2019-05-19T11:54:25.753Z,79.35
2019-05-19T11:55:26.339Z,79.74
2019-05-19T11:56:26.923Z,78.96
2019-05-19T11:57:27.507Z,78.96
2019-05-19T11:58:28.091Z,79.06
2019-05-19T11:59:29.088Z,78.19
2019-05-19T12:00:29.718Z,78.71
2019-05-19T12:01:30.298Z,78.13
2019-05-19T12:02:30.885Z,77.26
2019-05-19T12:03:31.470Z,77.75
2019-05-19T12:04:32.055Z,77.07
2019-05-19T12:05:32.648Z,77.17
2019-05-19T12:06:39.254Z,77.01
2019-05-19T12:07:34.808Z,76.63
2019-05-19T12:08:35.392Z,76.15
2019-05-19T12:09:35.979Z,75.47
2019-05-19T12:10:36.567Z,75.18
2019-05-19T12:11:37.149Z,74.79
2019-05-19T12:12:37.735Z,74.25
2019-05-19T12:13:38.325Z,74.25
2019-05-19T12:14:38.976Z,74.06
2019-05-19T12:15:39.613Z,73.58
2019-05-19T12:16:40.242Z,73.86
2019-05-19T12:17:40.864Z,73.32
2019-05-19T12:18:41.459Z,73.13
2019-05-19T12:19:42.042Z,73.03
2019-05-19T12:20:42.634Z,72.74
2019-05-19T12:22:01.944Z,72.68
2019-05-19T12:23:02.573Z,72.00
2019-05-19T12:24:03.211Z,71.52
2019-05-19T12:25:04.042Z,71.23
2019-05-19T12:26:04.668Z,70.98
2019-05-19T12:27:05.298Z,70.68
2019-05-19T12:28:12.585Z,70.68
2019-05-19T12:30:43.803Z,70.10
2019-05-19T12:31:44.393Z,69.72
2019-05-19T12:32:44.982Z,69.56
2019-05-19T12:35:01.015Z,69.08
2019-05-19T12:36:01.599Z,68.49
2019-05-19T12:37:02.233Z,68.21
2019-05-19T12:38:02.820Z,68.11
2019-05-19T12:39:03.460Z,68.40
2019-05-19T12:41:20.539Z,67.76
2019-05-19T12:42:21.130Z,67.37
2019-05-19T12:43:21.716Z,67.37
2019-05-19T12:44:22.305Z,66.78
2019-05-19T12:45:22.893Z,66.50
2019-05-19T12:46:23.481Z,66.24
2019-05-19T12:47:24.072Z,66.14
2019-05-19T12:48:24.658Z,66.05
2019-05-19T12:50:40.892Z,65.66
2019-05-19T12:51:41.482Z,65.30
2019-05-19T12:52:42.073Z,65.50
2019-05-19T12:53:42.669Z,64.92
2019-05-19T12:54:43.260Z,65.01
2019-05-19T12:55:43.846Z,65.01
2019-05-19T12:56:44.436Z,64.92
2019-05-19T12:57:45.025Z,64.72
2019-05-19T12:58:45.616Z,64.92
2019-05-19T12:59:46.203Z,64.92
2019-05-19T13:00:46.796Z,64.72
2019-05-19T13:01:47.430Z,64.62
2019-05-19T13:02:48.020Z,64.43
2019-05-19T13:03:48.617Z,64.14
2019-05-19T13:05:04.393Z,64.53
2019-05-19T13:05:50.804Z,64.53
2019-05-19T13:06:51.459Z,64.92
2019-05-19T13:07:52.049Z,64.98
2019-05-19T13:08:52.683Z,65.72
2019-05-19T13:09:53.283Z,66.50
2019-05-19T13:10:53.903Z,67.33
2019-05-19T13:11:54.694Z,67.63
2019-05-19T13:12:55.325Z,67.69
2019-05-19T13:13:55.923Z,68.17
2019-05-19T13:14:56.503Z,68.46
2019-05-19T13:15:57.133Z,67.18
2019-05-19T13:16:57.722Z,66.20
2019-05-19T13:17:58.307Z,65.95
2019-05-19T13:18:58.898Z,65.72
2019-05-19T13:19:59.487Z,65.82
2019-05-19T13:21:00.115Z,65.17
2019-05-19T13:22:00.751Z,65.37
2019-05-19T13:23:01.384Z,65.30
2019-05-19T13:24:02.219Z,63.95
2019-05-19T13:25:03.010Z,63.95
2019-05-19T13:26:03.597Z,63.46
2019-05-19T13:27:04.241Z,63.20
2019-05-19T13:28:04.865Z,63.20
2019-05-19T13:29:05.473Z,63.20
2019-05-19T13:30:06.069Z,63.69
2019-05-19T13:31:06.676Z,64.07
2019-05-19T13:32:07.263Z,62.95
2019-05-19T13:33:07.854Z,62.95
2019-05-19T13:34:08.443Z,62.65
2019-05-19T13:35:09.031Z,62.36
2019-05-19T13:36:09.625Z,62.65
2019-05-19T13:37:10.207Z,62.36
2019-05-19T13:38:10.795Z,62.26
2019-05-19T13:39:11.430Z,62.36
2019-05-19T13:40:12.064Z,62.46
2019-05-19T13:41:12.655Z,62.26
2019-05-19T13:42:13.254Z,62.46
2019-05-19T13:43:13.881Z,62.46
2019-05-19T13:44:14.517Z,62.16
2019-05-19T13:45:15.106Z,62.07
2019-05-19T13:46:15.696Z,62.65
2019-05-19T13:47:16.297Z,62.49
2019-05-19T13:48:16.920Z,62.55
2019-05-19T13:49:17.540Z,62.39
2019-05-19T13:50:18.140Z,62.49
2019-05-19T13:51:18.973Z,62.39
2019-05-19T13:53:35.048Z,62.46
2019-05-19T13:54:36.302Z,62.36
2019-05-19T13:56:52.358Z,62.85
2019-05-19T13:57:53.153Z,63.04
2019-05-19T14:01:28.596Z,63.23
2019-05-19T14:02:26.143Z,63.72
2019-05-19T14:05:58.555Z,65.40
2019-05-19T14:06:59.197Z,66.05
2019-05-19T14:07:59.829Z,66.63
2019-05-19T14:09:00.465Z,67.08
2019-05-19T14:10:01.290Z,67.85
2019-05-19T14:11:01.923Z,68.05
2019-05-19T14:12:02.560Z,68.49
2019-05-19T14:25:44.005Z,69.95
2019-05-19T14:26:44.586Z,70.04
2019-05-19T14:27:45.174Z,69.75
2019-05-19T14:28:45.803Z,69.95
2019-05-19T14:29:46.389Z,70.24
2019-05-19T14:30:46.973Z,69.75
2019-05-19T14:31:47.560Z,69.95
2019-05-19T14:32:48.153Z,69.85
2019-05-19T14:33:48.775Z,69.01
2019-05-19T14:34:49.392Z,69.50
2019-05-19T14:35:49.983Z,69.31
2019-05-19T14:36:50.564Z,69.50
2019-05-19T14:37:51.151Z,69.56
2019-05-19T14:38:51.735Z,69.98
2019-05-19T14:39:52.321Z,69.95
2019-05-19T14:40:52.906Z,69.85
2019-05-19T14:41:53.489Z,69.95
2019-05-19T14:42:54.084Z,69.95
2019-05-19T14:43:54.691Z,69.89
2019-05-19T14:44:55.239Z,69.01
2019-05-19T14:45:55.825Z,69.31
2019-05-19T14:46:56.406Z,69.11
2019-05-19T14:47:56.993Z,68.63
2019-05-19T14:48:57.619Z,68.53
2019-05-19T14:49:58.202Z,68.53
2019-05-19T14:50:58.787Z,68.53
2019-05-19T14:51:59.370Z,69.01
2019-05-19T14:52:59.999Z,69.50
2019-05-19T14:54:00.583Z,69.01
2019-05-19T14:55:01.164Z,69.59
2019-05-19T14:56:01.747Z,69.31
2019-05-19T14:57:02.369Z,68.91
2019-05-19T14:58:02.934Z,69.50
2019-05-19T14:59:03.517Z,69.40
2019-05-19T15:00:04.101Z,68.79
2019-05-19T15:01:04.727Z,69.85
2019-05-19T15:02:05.317Z,70.43
2019-05-19T15:03:05.897Z,70.20
2019-05-19T15:04:07.538Z,71.17
2019-05-19T15:05:08.528Z,71.26
2019-05-19T15:06:09.111Z,71.52
2019-05-19T15:07:09.702Z,71.81
2019-05-19T15:08:10.327Z,71.46
2019-05-19T15:09:10.916Z,71.94
2019-05-19T15:10:11.538Z,71.26
2019-05-19T15:11:12.118Z,71.46
2019-05-19T15:12:12.703Z,72.24
2019-05-19T15:13:13.286Z,72.14
2019-05-19T15:14:13.874Z,71.46
2019-05-19T15:15:14.453Z,71.75
2019-05-19T15:16:15.039Z,71.56
2019-05-19T15:17:15.621Z,72.00
2019-05-19T15:18:16.203Z,71.84
2019-05-19T15:19:16.785Z,72.10
2019-05-19T15:20:17.368Z,72.00
2019-05-19T15:21:17.952Z,72.10
2019-05-19T15:22:18.529Z,72.14
2019-05-19T15:23:19.113Z,72.14
2019-05-19T15:24:19.694Z,72.33
2019-05-19T15:25:20.275Z,71.91
2019-05-19T15:26:20.857Z,72.20
2019-05-19T15:27:21.438Z,72.68
2019-05-19T15:28:22.020Z,72.68
2019-05-19T15:29:22.602Z,73.16
2019-05-19T15:30:23.182Z,72.88
2019-05-19T15:31:23.764Z,73.26
2019-05-19T15:32:24.350Z,72.97
2019-05-19T15:33:24.953Z,73.36
2019-05-19T15:34:26.577Z,73.84
2019-05-19T15:35:27.159Z,73.46
2019-05-19T15:36:27.782Z,73.26
2019-05-19T15:37:28.365Z,73.26
2019-05-19T15:38:28.948Z,73.36
2019-05-19T15:39:29.578Z,73.46
2019-05-19T15:40:30.221Z,73.61
2019-05-19T15:42:46.257Z,74.10
2019-05-19T15:43:46.839Z,74.19
2019-05-19T15:44:47.422Z,74.38
2019-05-19T15:45:48.058Z,74.38
2019-05-19T15:46:48.642Z,74.68
2019-05-19T15:47:49.222Z,74.77
2019-05-19T15:48:49.803Z,74.68
2019-05-19T15:49:50.385Z,74.58
2019-05-19T15:50:51.018Z,74.58
2019-05-19T15:52:01.606Z,74.00
2019-05-19T15:52:52.223Z,74.10
2019-05-19T15:53:52.811Z,72.74
2019-05-19T15:54:53.392Z,73.61
2019-05-19T15:55:53.969Z,73.71
2019-05-19T15:56:54.594Z,73.90
2019-05-19T15:57:55.177Z,72.06
2019-05-19T15:58:55.763Z,72.58
2019-05-19T15:59:56.382Z,71.42
2019-05-19T16:00:56.977Z,71.62
2019-05-19T16:01:57.604Z,69.98
2019-05-19T16:02:58.221Z,69.49
2019-05-19T16:03:58.792Z,70.36
2019-05-19T16:04:59.374Z,70.65
2019-05-19T16:05:59.958Z,69.88
2019-05-19T16:07:00.538Z,69.88
2019-05-19T16:08:01.118Z,70.46
2019-05-19T16:09:01.700Z,69.98
2019-05-19T16:10:02.345Z,69.10
2019-05-19T16:11:02.907Z,69.78
2019-05-19T16:12:03.488Z,68.33
2019-05-19T16:13:04.071Z,68.72
2019-05-19T16:14:04.654Z,68.33
2019-05-19T16:15:05.233Z,69.78
2019-05-19T16:16:05.815Z,69.40
2019-05-19T16:17:06.395Z,69.40
2019-05-19T16:18:06.975Z,68.43
2019-05-19T16:19:07.598Z,68.91
2019-05-19T16:20:08.175Z,69.26
2019-05-19T16:21:08.756Z,68.30
2019-05-19T16:22:09.335Z,70.14
2019-05-19T16:23:09.916Z,67.62
2019-05-19T16:24:10.501Z,67.62
2019-05-19T16:25:11.119Z,67.91
2019-05-19T16:26:11.697Z,68.88
2019-05-19T16:27:12.918Z,69.13
2019-05-19T16:28:13.617Z,69.13
2019-05-19T16:29:14.198Z,69.94
2019-05-19T16:30:14.777Z,68.40
2019-05-19T16:31:15.359Z,68.46
2019-05-19T16:32:15.942Z,68.65
2019-05-19T16:33:16.678Z,68.46
2019-05-19T16:34:17.137Z,69.04
2019-05-19T16:35:17.716Z,69.62
2019-05-19T16:36:18.296Z,70.10
2019-05-19T16:37:18.875Z,68.94
2019-05-19T16:38:19.457Z,68.75
2019-05-19T16:39:20.038Z,68.65
2019-05-19T16:40:20.615Z,69.13
2019-05-19T16:41:21.194Z,68.26
2019-05-19T16:42:21.775Z,68.46
2019-05-19T16:43:22.354Z,69.13
2019-05-19T16:44:22.934Z,68.75
2019-05-19T16:45:23.511Z,68.26
2019-05-19T16:46:24.089Z,68.07
2019-05-19T16:47:24.669Z,68.26
2019-05-19T16:48:25.249Z,68.55
2019-05-19T16:49:25.825Z,68.36
2019-05-19T16:50:26.402Z,68.46
2019-05-19T16:51:26.982Z,67.97
2019-05-19T16:52:27.562Z,68.46
2019-05-19T16:53:28.142Z,71.64
2019-05-19T16:54:28.726Z,71.45
2019-05-19T16:55:29.354Z,71.84
2019-05-19T16:56:29.933Z,69.23
2019-05-19T16:57:30.513Z,68.75
2019-05-19T16:58:44.509Z,70.39
2019-05-19T16:59:32.662Z,69.04
2019-05-19T17:00:33.242Z,69.81
2019-05-19T17:01:33.821Z,69.62
2019-05-19T17:02:34.398Z,69.32
2019-05-19T17:03:34.976Z,70.20
2019-05-19T17:04:35.557Z,69.97
2019-05-19T17:05:36.137Z,70.78
2019-05-19T17:06:36.713Z,69.68
2019-05-19T17:07:37.294Z,70.64
2019-05-19T17:08:37.873Z,72.32
2019-05-19T17:09:38.454Z,71.80
2019-05-19T17:10:39.030Z,71.03
2019-05-19T17:11:54.330Z,71.42
2019-05-19T17:12:54.954Z,69.68
2019-05-19T17:13:55.533Z,69.68
2019-05-19T17:14:56.109Z,69.78
2019-05-19T17:15:56.689Z,69.58
2019-05-19T17:16:57.266Z,69.87
2019-05-19T17:17:57.848Z,70.54
2019-05-19T17:18:58.424Z,70.84
2019-05-19T17:19:59.003Z,70.06
2019-05-19T17:20:59.586Z,69.87
2019-05-19T17:22:00.163Z,71.51
2019-05-19T17:23:00.785Z,71.42
2019-05-19T17:24:01.400Z,72.19
2019-05-19T17:25:01.990Z,70.90
2019-05-19T17:26:02.567Z,71.67
2019-05-19T17:27:03.164Z,73.31
2019-05-19T17:28:03.772Z,71.86
2019-05-19T17:29:04.350Z,71.86
2019-05-19T17:30:04.971Z,73.50
2019-05-19T17:31:07.634Z,74.43
2019-05-19T17:32:07.122Z,74.24
2019-05-19T17:33:07.701Z,74.43
2019-05-19T17:34:08.279Z,74.91
2019-05-19T17:35:08.867Z,75.40
2019-05-19T17:36:09.442Z,76.65
2019-05-19T17:37:10.015Z,77.61
2019-05-19T17:38:10.590Z,76.65
2019-05-19T17:39:11.169Z,77.00
2019-05-19T17:40:11.747Z,76.13
2019-05-19T17:41:12.372Z,78.34
2019-05-19T17:42:13.830Z,76.03
2019-05-19T17:43:13.573Z,76.80
2019-05-19T17:44:14.150Z,77.00
2019-05-19T17:45:14.729Z,77.96
2019-05-19T17:46:15.361Z,76.80
2019-05-19T17:47:15.895Z,77.76
2019-05-19T17:48:26.105Z,77.48
2019-05-19T17:49:18.047Z,77.86
2019-05-19T17:50:18.627Z,79.31
2019-05-19T17:51:19.207Z,77.38
2019-05-19T17:52:19.804Z,77.48
2019-05-19T17:53:20.403Z,78.15
2019-05-19T17:54:20.982Z,78.15
2019-05-19T17:55:21.559Z,77.67
2019-05-19T17:56:22.135Z,78.25
2019-05-19T17:57:22.758Z,78.92
2019-05-19T17:58:23.384Z,78.54
2019-05-19T17:59:23.958Z,78.34
2019-05-19T18:00:24.539Z,79.79
2019-05-19T18:01:25.117Z,79.41
2019-05-19T18:02:25.696Z,79.31
2019-05-19T18:03:26.272Z,78.54
2019-05-19T18:04:26.851Z,78.63
2019-05-19T18:05:27.436Z,79.31
2019-05-19T18:06:29.804Z,78.92
2019-05-19T18:07:29.627Z,79.60
2019-05-19T18:08:30.203Z,78.54
2019-05-19T18:09:30.779Z,79.41
2019-05-19T18:10:31.401Z,78.63
2019-05-19T18:11:31.987Z,78.44
2019-05-19T18:12:32.599Z,79.79
2019-05-19T18:13:33.231Z,79.27
2019-05-19T18:14:33.804Z,78.63
2019-05-19T18:15:34.394Z,79.36
2019-05-19T18:16:35.008Z,79.27
2019-05-19T18:17:35.624Z,79.56
2019-05-19T18:18:36.247Z,79.66
2019-05-19T18:19:36.825Z,79.36
2019-05-19T18:20:37.405Z,80.04
2019-05-19T18:21:37.982Z,81.77
2019-05-19T18:22:38.558Z,80.33
2019-05-19T18:23:39.138Z,81.10
2019-05-19T18:24:39.715Z,80.14
2019-05-19T18:25:40.295Z,81.39
2019-05-19T18:26:40.872Z,81.68
2019-05-19T18:27:41.471Z,82.35
2019-05-19T18:28:42.076Z,82.06
2019-05-19T18:29:42.695Z,81.96
2019-05-19T18:30:43.276Z,82.16
2019-05-19T18:31:43.856Z,81.01
2019-05-19T18:32:44.432Z,81.58
2019-05-19T18:33:45.009Z,81.48
2019-05-19T18:34:45.589Z,81.96
2019-05-19T18:35:46.166Z,81.68
2019-05-19T18:36:46.784Z,81.39
2019-05-19T18:37:47.374Z,81.10
2019-05-19T18:38:47.938Z,81.29
2019-05-19T18:39:48.515Z,82.54
2019-05-19T18:40:49.094Z,82.26
2019-05-19T18:41:49.670Z,82.26
2019-05-19T18:42:50.252Z,82.06
2019-05-19T18:43:50.872Z,81.77
2019-05-19T18:44:51.450Z,81.48
2019-05-19T18:45:52.027Z,82.54
2019-05-19T18:46:52.642Z,83.61
2019-05-19T18:47:53.199Z,81.48
2019-05-19T18:48:53.768Z,83.12
2019-05-19T18:49:54.345Z,82.64
2019-05-19T18:50:54.921Z,82.45
2019-05-19T18:51:55.502Z,82.54
2019-05-19T18:52:56.121Z,82.45
2019-05-19T18:53:56.697Z,82.54
2019-05-19T18:54:57.275Z,82.93
2019-05-19T18:55:57.853Z,82.64
2019-05-19T18:56:58.430Z,82.21
2019-05-19T18:57:59.011Z,83.95
2019-05-19T18:58:59.583Z,82.12
2019-05-19T19:00:00.160Z,82.50
2019-05-19T19:01:00.741Z,82.12
2019-05-19T19:02:01.314Z,82.41
2019-05-19T19:03:01.889Z,82.60
2019-05-19T19:04:02.473Z,83.47
2019-05-19T19:05:03.044Z,86.16
2019-05-19T19:06:03.619Z,85.25
2019-05-19T19:07:04.195Z,84.14
2019-05-19T19:08:04.773Z,85.58
2019-05-19T19:09:05.364Z,85.83
2019-05-19T19:10:05.941Z,84.87
2019-05-19T19:11:06.527Z,84.48
2019-05-19T19:12:07.095Z,86.22
2019-05-19T19:13:07.682Z,85.25
2019-05-19T19:14:22.915Z,86.79
2019-05-19T19:15:23.493Z,85.54
2019-05-19T19:16:24.069Z,86.99
2019-05-19T19:17:24.643Z,86.60
2019-05-19T19:18:25.300Z,86.69
2019-05-19T19:19:25.877Z,86.79
2019-05-19T19:20:26.453Z,86.69
2019-05-19T19:21:27.031Z,86.94
2019-05-19T19:22:27.605Z,86.36
2019-05-19T19:23:28.183Z,86.94
2019-05-19T19:24:28.810Z,88.00
2019-05-19T19:25:44.196Z,88.19
2019-05-19T19:26:44.772Z,88.39
2019-05-19T19:27:45.349Z,87.71
2019-05-19T19:28:45.920Z,88.67
2019-05-19T19:30:00.616Z,87.52
2019-05-19T19:30:48.061Z,88.39
2019-05-19T19:31:49.056Z,88.29
2019-05-19T19:32:49.851Z,88.96
2019-05-19T19:33:50.469Z,88.29
2019-05-19T19:34:51.047Z,88.67
2019-05-19T19:35:51.622Z,88.10
2019-05-19T19:36:52.195Z,88.96
2019-05-19T19:37:52.769Z,88.67
2019-05-19T19:38:53.341Z,88.96
2019-05-19T19:39:53.915Z,89.15
2019-05-19T19:40:54.577Z,88.92
2019-05-19T19:41:55.103Z,89.21
2019-05-19T19:42:55.676Z,89.73
2019-05-19T19:43:56.249Z,89.40
2019-05-19T19:44:56.826Z,89.40
2019-05-19T19:45:57.399Z,89.21
2019-05-19T19:46:57.971Z,89.98
2019-05-19T19:47:58.542Z,90.07
2019-05-19T19:48:59.115Z,90.36
2019-05-19T19:49:59.690Z,90.26
2019-05-19T19:51:00.264Z,90.55
2019-05-19T19:52:00.833Z,90.65
2019-05-19T19:53:01.408Z,91.22
2019-05-19T19:54:02.032Z,91.32
2019-05-19T19:55:02.598Z,90.55
2019-05-19T19:56:03.172Z,90.94